Station: Clare  

  Atmospheric Gas Attenuation - ITU Rec 676-11   ----------------- dB/100km -----------------
Date Time Temp RH % AH g/m3 Dew Point Wind Direction Speed kph Gust kph Barometer mB Rainfall Since 9am 24GHz 47GHz 76GHz 122GHz 134GHz 241GHz
10/05 23:00 6.4 94 7.01 5.5 0 0 1030 0 16.5 26.1 37.6 98.3 87.0 297.4
10/05 22:50 6.5 94 7.05 5.6 0 0 1030.1 0 16.6 26.1 37.7 98.6 87.5 299.0
10/05 22:40 6.7 94 7.15 5.8 0 0 1030.1 0 16.8 26.2 38.1 99.5 88.6 303.1
10/05 22:30 6.7 93 7.07 5.7 0 0 1030.1 0 16.6 26.1 37.7 98.6 87.5 299.2
10/05 22:20 7 93 7.21 5.9 0 0 1030.2 0 16.9 26.2 38.2 99.8 89.1 304.9
10/05 22:10 7.1 93 7.26 6 0 0 1030.2 0 17.0 26.3 38.3 100.2 89.7 307.0
10/05 22:00 7.3 93 7.35 6.2 0 0 1030.1 0 17.2 26.4 38.6 101.0 90.7 310.5
10/05 21:50 7.7 92 7.46 6.5 0 0 1030.2 0 17.4 26.5 38.9 101.7 91.8 314.3
10/05 21:40 7.8 92 7.51 6.6 0 0 1030.2 0 17.5 26.5 39.1 102.1 92.4 316.4
10/05 21:30 8.1 92 7.66 6.9 0 0 1030 0 17.8 26.7 39.5 103.4 94.1 322.4
10/05 21:20 8.2 90 7.54 6.7 0 0 1030 0 17.6 26.4 39.0 101.9 92.3 316.2
10/05 21:10 8.5 90 7.69 7 0 0 1029.9 0 17.9 26.6 39.5 103.2 94.0 322.2
10/05 21:00 8.7 90 7.79 7.2 0 0 1029.8 0 18.1 26.7 39.8 104.1 95.1 326.2
10/05 20:50 8.8 88 7.66 6.9 0 0 1029.8 0 17.8 26.4 39.2 102.5 93.2 319.5
10/05 20:40 9.1 87 7.72 7.1 0 0 1029.8 0 17.9 26.5 39.3 102.8 93.7 321.1
10/05 20:30 9.3 86 7.73 7.1 0 0 1029.8 0 17.9 26.4 39.2 102.6 93.6 320.8
10/05 20:20 9.8 85 7.89 7.4 0 0 1029.9 0 18.2 26.5 39.6 103.7 95.2 326.5
10/05 20:10 10 83 7.8 7.3 0 0 1029.9 0 18.0 26.3 39.2 102.5 93.7 321.3
10/05 20:00 10.4 81 7.81 7.3 0 0 1029.8 0 18.0 26.2 39.0 102.1 93.3 320.1
10/05 19:50 11.1 79 7.96 7.6 0 0 1029.8 0 18.3 26.3 39.3 102.8 94.5 324.4
10/05 19:40 11.3 77 7.86 7.4 0 0 1029.8 0 18.1 26.0 38.8 101.4 92.9 318.8
10/05 19:30 12 75 7.99 7.7 0 0 1029.7 0 18.4 26.0 39.0 101.9 93.8 322.1
10/05 19:20 12.6 75 8.3 8.3 0 0 1029.8 0 19.0 26.4 39.9 104.5 97.3 334.2
10/05 19:10 13.1 72 8.22 8.2 0 0 1029.8 0 18.8 26.1 39.4 103.0 95.6 328.3
10/05 19:00 13.2 71 8.15 8.1 2 6 1029.6 0 18.6 26.0 39.0 102.1 94.5 324.6
10/05 18:50 13.3 72 8.32 8.4 7 7 1029.6 0 19.0 26.2 39.6 103.8 96.6 332.1
10/05 18:40 13.3 75 8.67 9 0 2 1029.6 0 19.7 26.8 41.1 107.6 101.3 348.5
10/05 18:30 13.4 76 8.84 9.3 0 0 1029.3 0 20.1 27.0 41.7 109.3 103.5 356.0
10/05 18:20 13.3 76 8.78 9.2 0 0 1029.3 0 20.0 26.9 41.5 108.8 102.8 353.6
10/05 18:10 13.2 77 8.84 9.3 0 0 1029.3 0 20.1 27.1 41.8 109.6 103.7 356.9
10/05 18:00 13.4 78 9.07 9.6 0 0 1029.2 0 20.6 27.4 42.7 111.8 106.6 366.9
10/05 17:50 13.5 77 9.01 9.6 0 0 1029.1 0 20.5 27.3 42.3 111.0 105.6 363.6
10/05 17:40 13.6 74 8.71 9.1 0 0 1029 0 19.8 26.7 41.1 107.6 101.4 348.9
10/05 17:30 13.7 73 8.64 9 0 0 1028.9 0 19.7 26.6 40.7 106.7 100.3 345.1
10/05 17:20 13.8 74 8.82 9.3 0 0 1029 0 20.0 26.9 41.4 108.5 102.6 353.2
10/05 17:10 13.9 70 8.39 8.5 0 0 1028.8 0 19.1 26.1 39.6 103.7 96.8 332.6
10/05 17:00 14 71 8.56 8.8 0 0 1028.7 0 19.5 26.4 40.2 105.4 98.9 340.0
10/05 16:50 14.1 68 8.25 8.3 0 0 1028.7 0 18.8 25.8 38.9 101.9 94.7 325.3
10/05 16:40 14.2 69 8.43 8.6 2 6 1028.6 0 19.2 26.1 39.6 103.7 96.9 333.1
10/05 16:30 14.2 68 8.3 8.4 0 6 1028.6 0 18.9 25.9 39.1 102.3 95.2 327.1
10/05 16:20 14.3 68 8.35 8.5 0 0 1028.6 0 19.0 25.9 39.2 102.7 95.7 329.0
10/05 16:10 14.3 68 8.35 8.5 7 9 1028.6 0 19.0 25.9 39.2 102.7 95.7 329.0
10/05 16:00 14.3 66 8.11 8 0 6 1028.5 0 18.5 25.5 38.3 100.2 92.6 318.0
10/05 15:50 14.3 65 7.99 7.8 0 0 1028.6 0 18.3 25.3 37.8 98.9 91.0 312.6
10/05 15:40 14.3 66 8.11 8 6 7 1028.6 0 18.5 25.5 38.3 100.2 92.6 318.0
10/05 15:30 14.3 68 8.35 8.5 0 0 1028.6 0 19.0 25.9 39.2 102.7 95.7 329.0
10/05 15:20 14.3 68 8.35 8.5 0 0 1028.6 0 19.0 25.9 39.2 102.7 95.7 329.0
10/05 15:10 14.2 66 8.06 7.9 7 9 1028.6 0 18.4 25.5 38.1 99.8 92.1 316.1
10/05 15:00 14.4 66 8.16 8.1 2 7 1028.5 0 18.6 25.6 38.4 100.6 93.1 319.9
10/05 14:50 14.4 67 8.28 8.4 0 0 1028.6 0 18.9 25.8 38.9 101.8 94.7 325.4
10/05 14:40 14.3 67 8.23 8.3 4 6 1028.6 0 18.8 25.7 38.8 101.4 94.1 323.5
10/05 14:30 14.3 70 8.6 8.9 4 7 1028.6 0 19.5 26.3 40.2 105.4 99.0 340.6
10/05 14:20 14.1 68 8.25 8.3 6 7 1028.6 0 18.8 25.8 38.9 101.9 94.7 325.2
10/05 14:10 14.3 69 8.48 8.7 0 0 1028.6 0 19.3 26.1 39.8 104.1 97.4 335.0
10/05 14:00 14 69 8.32 8.4 4 7 1028.7 0 19.0 26.0 39.3 102.8 95.7 328.9
10/05 13:50 14 71 8.56 8.8 0 0 1028.6 0 19.5 26.3 40.2 105.4 98.9 340.0
10/05 13:40 13.9 71 8.51 8.7 2 6 1028.7 0 19.4 26.3 40.1 105.0 98.3 338.1
10/05 13:30 13.7 70 8.29 8.3 2 7 1028.7 0 18.9 26.0 39.3 102.9 95.7 328.8
10/05 13:20 13.6 70 8.24 8.2 4 6 1028.7 0 18.8 26.0 39.1 102.5 95.1 326.9
10/05 13:10 13.7 71 8.41 8.5 6 6 1028.8 0 19.2 26.2 39.8 104.2 97.3 334.4
10/05 13:00 13.7 70 8.29 8.3 2 11 1028.9 0 18.9 26.0 39.3 102.9 95.7 328.8
10/05 12:50 13.6 71 8.36 8.4 0 4 1029.1 0 19.1 26.2 39.6 103.8 96.8 332.5
10/05 12:40 13.6 73 8.59 8.9 4 6 1029.2 0 19.6 26.5 40.6 106.3 99.8 343.3
10/05 12:30 13.5 70 8.19 8.1 6 9 1029.3 0 18.7 25.9 39.0 102.1 94.6 325.1
10/05 12:20 13.6 69 8.12 8 6 7 1029.6 0 18.6 25.8 38.7 101.3 93.6 321.6
10/05 12:10 13.5 69 8.07 7.9 4 6 1029.7 0 18.5 25.7 38.6 100.9 93.1 319.7
10/05 12:00 13.4 67 7.79 7.4 6 9 1029.7 0 17.9 25.3 37.5 98.0 89.5 307.2
10/05 11:50 13.5 68 7.95 7.7 6 7 1029.9 0 18.2 25.6 38.1 99.6 91.5 314.2
10/05 11:40 13.5 70 8.19 8.1 2 4 1030 0 18.7 25.9 39.0 102.2 94.7 325.3
10/05 11:30 13.3 71 8.2 8.2 7 9 1030.1 0 18.7 26.0 39.2 102.6 95.1 326.6
10/05 11:20 13.4 70 8.14 8 2 7 1030.3 0 18.6 25.9 38.9 101.8 94.2 323.5
10/05 11:10 13.2 71 8.15 8.1 6 7 1030.3 0 18.6 26.0 39.0 102.2 94.6 324.8
10/05 11:00 13.1 72 8.22 8.2 6 7 1030.2 0 18.8 26.1 39.4 103.0 95.6 328.4
10/05 10:50 12.9 72 8.12 8 7 9 1030.3 0 18.6 26.0 39.1 102.2 94.5 324.6
10/05 10:40 12.9 71 8 7.8 7 9 1030.3 0 18.3 25.8 38.6 101.0 92.9 319.0
10/05 10:30 13 73 8.28 8.3 9 15 1030.1 0 18.9 26.2 39.7 103.8 96.5 331.6
10/05 10:20 12.8 73 8.18 8.1 11 13 1030.3 0 18.7 26.1 39.4 103.0 95.4 327.8
10/05 10:10 12.9 75 8.45 8.6 11 15 1030.2 0 19.3 26.6 40.4 105.8 98.9 340.0
10/05 10:00 12.8 76 8.51 8.7 9 13 1030.1 0 19.4 26.7 40.7 106.6 99.9 343.3
10/05 09:50 12.8 71 7.95 7.7 7 7 1030.1 0 18.2 25.8 38.4 100.5 92.4 317.1
10/05 09:40 12.8 73 8.18 8.1 9 11 1030.2 0 18.7 26.1 39.4 103.0 95.4 327.8
10/05 09:30 12.7 72 8.02 7.8 7 9 1030.1 0 18.4 25.9 38.8 101.4 93.4 320.7
10/05 09:20 12.7 74 8.24 8.2 2 6 1030.3 0 18.9 26.3 39.7 103.8 96.4 331.0
10/05 09:10 12.6 80 8.85 9.2 7 9 1030.3 0 20.2 27.3 42.2 110.6 104.8 360.4
10/05 09:00 12.5 84 9.24 9.9 7 13 1030.2 0 21.0 28.0 43.9 115.1 110.3 379.7
10/05 08:50 12.3 86 9.34 10 6 7 1030.3 0 21.2 28.2 44.4 116.6 112.0 385.6
10/05 08:40 12.1 87 9.33 10 7 7 1030.3 0 21.2 28.3 44.5 116.8 112.1 386.1
10/05 08:30 11.9 88 9.32 10 7 11 1030.1 0 21.2 28.3 44.6 116.9 112.3 386.6
10/05 08:20 11.9 89 9.43 10.1 6 6 1030.2 0 21.4 28.5 45.1 118.2 113.8 392.0
10/05 08:10 11.7 90 9.41 10.1 7 9 1030 0 21.4 28.5 45.1 118.3 113.8 392.0
10/05 08:00 11.6 91 9.46 10.2 4 7 1029.8 0 21.5 28.7 45.3 119.0 114.7 394.9
10/05 07:50 11.6 91 9.46 10.2 6 7 1029.8 0 21.5 28.7 45.3 119.0 114.7 394.9
10/05 07:40 11.4 91 9.34 10 2 6 1029.7 0 21.3 28.5 44.9 117.9 113.2 389.9
10/05 07:30 11.3 92 9.39 10 0 0 1029.5 0 21.4 28.6 45.2 118.6 114.1 392.8
10/05 07:20 11.2 91 9.23 9.8 0 0 1029.5 0 21.1 28.4 44.6 116.9 112.0 385.4
10/05 07:10 11.2 91 9.23 9.8 6 6 1029.4 0 21.1 28.4 44.6 116.9 112.0 385.4
10/05 07:00 11.1 91 9.17 9.7 2 7 1029.2 0 20.9 28.3 44.3 116.3 111.2 382.8
10/05 06:50 11.1 92 9.27 9.9 6 7 1029.2 0 21.1 28.5 44.8 117.5 112.7 387.8
10/05 06:40 11.1 92 9.27 9.9 6 6 1029.2 0 21.1 28.5 44.8 117.5 112.7 387.8
10/05 06:30 11.1 92 9.27 9.9 6 7 1029 0 21.1 28.5 44.8 117.4 112.6 387.7

Last Refresh: 10-May-2026 23:03:12

Bureau of Meteorology